Keytesville, Missouri
Current Conditions -  °F | °C
As of 7:55 AM on Saturday 25 Oct 2014 (Local Time) from KVER Reporting Station
Moderate Fog Moderate Fog  
Wind Chill: 14°   Ceiling: 800
Heat Index: 14°   Visibility: 0mi
Dew Point: 14°   Wind: 0mph
Humidity: 100%   Direction: NA
Pressure: 30.04"   Gusts: NA
Location:  39.43°N, 92.94°W
Report Text: KVER 251255Z AUTO 00000KT M1/4SM FG OVC008 14/14 A3004 RMK AO2 T01410142
Loading
Personal Weather Stations






























Interactive Weather Map
Tropical Storm Tracking
New forecast layout! Learn more

10-Day Weather Forecast

Advertisements
Track Severe Weather on mobile